Latest Weather Observations for Maryborough

IDQ60801

Issued at 2:05 pm EST Friday 25 April 2014 (issued every 30 minutes, with the page automatically refreshed every 10 minutes)

About weather observations | Map of weather stations | Latest weather observations for QLD | Other Formats
Station Details ID: 040126 Name: MARYBOROUGH Lat: -25.52 Lon: 152.72 Height: 10.28 m
Data from the previous 72 hours. | See also: Recent months at Maryborough
Date/Time
EST
Temp
°C
App
Temp
°C
Dew
Point
Rel
Hum
%
Delta-T
°C
Wind Press
QNH
hPa
Press
MSL
hPa
Rain
since 9 am
mm
Dir
 
Spd
km/h
Gust
km/h
Spd
kts
Gust
kts
25/02:00pm 26.6 24.4 16.8 55 6.1 ESE 24 30 13 16 1014.7 - 0.0
25/01:30pm 27.8 27.0 17.9 54 6.3 ESE 19 30 10 16 1014.8 - 0.0
25/01:00pm 28.2 26.5 17.1 51 7.0 ESE 22 30 12 16 1015.2 - 0.0
25/12:30pm 26.6 25.8 17.9 59 5.5 SE 19 28 10 15 1015.5 - 0.0
25/12:00pm 26.3 25.6 17.4 58 5.6 SE 17 20 9 11 1015.9 1015.8 0.0
25/11:30am 27.1 26.5 17.6 56 6.0 ESE 17 24 9 13 1016.4 - 0.0
25/11:00am 27.3 28.1 19.1 61 5.3 SSE 13 20 7 11 1016.9 - 0.0
25/10:30am 25.9 25.4 17.8 61 5.1 ESE 17 22 9 12 1017.3 - 0.0
25/10:00am 25.7 25.7 18.9 66 4.3 S 17 24 9 13 1017.5 - 0.0
25/09:30am 25.0 25.4 19.1 70 3.8 S 15 22 8 12 1017.6 - 0.0
25/09:00am 23.3 23.8 19.2 78 2.6 S 15 19 8 10 1017.7 1017.6 0.0
25/08:30am 21.3 21.0 18.3 83 1.9 S 17 20 9 11 1017.8 - 0.0
25/08:00am 20.5 21.0 18.4 88 1.3 SSW 13 19 7 10 1017.7 - 0.0
25/07:30am 19.7 21.0 18.4 92 0.8 S 9 13 5 7 1017.4 - 0.0
25/07:00am 18.3 19.0 17.0 92 0.8 WSW 9 11 5 6 1017.0 - 0.0
25/06:30am 17.8 18.4 16.7 93 0.7 SW 9 11 5 6 1016.5 - 0.0
25/06:00am 18.0 19.1 17.0 94 0.6 SW 7 9 4 5 1016.1 1016.0 0.0
25/05:30am 17.8 18.4 16.8 94 0.6 SSW 9 11 5 6 1015.7 - 0.0
25/05:00am 17.8 18.4 16.8 94 0.6 SSW 9 11 5 6 1015.4 - 0.0
25/04:30am 17.9 18.5 16.9 94 0.6 SW 9 11 5 6 1015.2 - 0.0
25/04:00am 17.8 18.8 16.8 94 0.6 SW 7 9 4 5 1015.0 - 0.0
25/03:30am 17.7 18.3 16.9 95 0.5 SW 9 11 5 6 1015.0 - 0.0
25/03:12am 17.4 18.3 16.6 95 0.5 SSW 7 9 4 5 1015.0 - 0.0
25/03:00am 17.1 19.2 16.3 95 0.5 CALM 0 6 0 3 1014.9 1014.8 0.0
25/02:44am 17.2 19.4 16.4 95 0.5 CALM 0 0 0 0 1014.8 - 0.0
25/02:30am 17.3 18.7 16.3 94 0.6 SSW 4 9 2 5 1014.8 - 0.0
25/02:06am 17.6 18.2 16.8 95 0.5 SSW 9 11 5 6 1014.9 - 0.0
25/02:00am 17.7 18.7 16.9 95 0.5 SSW 7 11 4 6 1014.9 - 0.0
25/01:30am 17.9 19.9 16.9 94 0.6 SSW 2 6 1 3 1015.2 - 0.0
25/01:20am 17.5 18.4 16.2 92 0.8 SSW 6 7 3 4 1015.3 - 0.0
25/01:00am 17.9 18.8 16.6 92 0.8 SSW 7 9 4 5 1015.5 - 0.0
25/12:30am 18.0 19.1 16.5 91 0.9 SSW 6 7 3 4 1015.9 - 0.0
25/12:00am 18.1 19.2 16.6 91 0.9 SSW 6 7 3 4 1015.8 1015.7 0.0
 
Date/Time
EST
Temp
°C
App
Temp
°C
Dew
Point
Rel
Hum
%
Delta-T
°C
Wind Press
QNH
hPa
Press
MSL
hPa
Rain
since 9 am
mm
Dir
 
Spd
km/h
Gust
km/h
Spd
kts
Gust
kts
24/11:30pm 18.6 19.8 17.3 92 0.8 SSW 7 9 4 5 1016.0 - 0.0
24/11:00pm 17.9 18.7 16.4 91 0.9 SSW 7 9 4 5 1016.1 - 0.0
24/10:30pm 18.0 18.1 16.5 91 0.9 SSW 11 13 6 7 1016.2 - 0.0
24/10:00pm 18.1 18.5 16.4 90 1.0 SSW 9 11 5 6 1016.3 - 0.0
24/09:30pm 17.8 18.7 16.1 90 1.0 ESE 6 7 3 4 1016.4 - 0.0
24/09:00pm 18.7 20.0 17.0 90 1.0 ESE 6 6 3 3 1016.4 1016.3 0.0
24/08:30pm 18.8 19.7 16.6 87 1.3 ESE 7 9 4 5 1016.2 - 0.0
24/08:00pm 19.5 20.9 17.3 87 1.3 ESE 6 7 3 4 1015.9 - 0.0
24/07:30pm 20.1 21.5 17.3 84 1.7 ESE 6 7 3 4 1015.5 - 0.0
24/07:00pm 20.2 21.3 17.0 82 1.9 ESE 7 7 4 4 1015.3 - 0.0
24/06:30pm 20.8 21.4 16.8 78 2.4 ESE 9 9 5 5 1015.1 - 0.0
24/06:00pm 21.5 22.2 17.1 76 2.7 ESE 9 11 5 6 1014.8 1014.7 0.0
24/05:30pm 22.7 23.0 16.9 70 3.6 ESE 11 15 6 8 1014.5 - 0.0
24/05:00pm 24.2 23.2 16.7 63 4.6 ESE 17 24 9 13 1014.3 - 0.0
24/04:30pm 25.3 24.2 17.2 61 5.0 ESE 19 24 10 13 1013.8 - 0.0
24/04:00pm 26.6 25.8 17.1 56 5.9 SE 17 22 9 12 1013.4 - 0.0
24/03:30pm 27.0 25.9 17.2 55 6.1 ESE 19 28 10 15 1013.4 - 0.0
24/03:00pm 27.3 26.4 16.9 53 6.5 ESE 17 28 9 15 1013.3 1013.2 0.0
24/02:30pm 27.8 27.8 17.3 52 6.6 SE 13 20 7 11 1013.2 - 0.0
24/02:00pm 26.0 26.1 17.4 59 5.4 ESE 13 19 7 10 1013.5 - 0.0
24/01:30pm 27.4 27.6 17.6 55 6.2 E 13 20 7 11 1013.6 - 0.0
24/01:00pm 26.2 25.9 17.3 58 5.6 ESE 15 19 8 10 1014.0 - 0.0
24/12:30pm 27.1 27.7 17.6 56 6.0 SSE 11 19 6 10 1014.5 - 0.0
24/12:00pm 27.1 26.5 17.6 56 6.0 SE 17 24 9 13 1015.1 1015.0 0.0
24/11:30am 25.5 26.0 17.4 61 5.1 SSW 11 15 6 8 1015.9 - 0.0
24/11:00am 25.5 26.1 18.7 66 4.3 S 13 17 7 9 1016.3 - 0.0
24/10:30am 24.9 25.8 18.3 66 4.2 S 11 17 6 9 1017.0 - 0.0
24/10:00am 24.1 25.5 18.7 72 3.4 SSW 9 13 5 7 1017.2 - 0.0
24/09:30am 21.7 22.3 17.7 78 2.5 SW 11 17 6 9 1017.5 - 0.0
24/09:00am 20.4 20.8 17.2 82 2.0 S 11 13 6 7 1016.8 1016.7 0.0
24/08:30am 19.4 19.6 16.8 85 1.6 S 11 15 6 8 1016.5 - 0.0
24/08:00am 18.4 18.8 16.4 88 1.2 S 9 13 5 7 1016.6 - 0.0
24/07:30am 18.3 18.7 16.3 88 1.2 S 9 13 5 7 1016.7 - 0.0
24/07:00am 18.1 18.5 16.4 90 1.0 SSW 9 13 5 7 1016.4 - 0.0
24/06:30am 17.8 17.8 16.3 91 0.9 SSW 11 13 6 7 1016.0 - 0.0
24/06:00am 17.6 18.1 16.5 93 0.7 SW 9 11 5 6 1015.9 1015.8 0.0
24/05:30am 17.1 17.7 15.8 92 0.8 WNW 7 9 4 5 1015.6 - 0.0
24/05:00am 17.3 17.6 16.0 92 0.8 SSW 9 13 5 7 1015.0 - 0.0
24/04:30am 17.1 17.0 16.0 93 0.6 S 11 13 6 7 1014.6 - 0.0
24/04:00am 17.5 18.4 16.0 91 0.9 SW 6 9 3 5 1014.7 - 0.0
24/03:30am 17.6 17.6 16.3 92 0.8 SSW 11 13 6 7 1014.9 - 0.0
24/03:00am 17.7 18.1 16.2 91 0.9 SSW 9 11 5 6 1014.9 1014.8 0.0
24/02:30am 18.5 19.4 16.5 88 1.2 SW 7 9 4 5 1015.5 - 0.0
24/02:00am 18.7 19.7 16.8 89 1.1 SSW 7 11 4 6 1015.6 - 0.0
24/01:30am 18.9 20.0 17.0 89 1.1 SSW 7 9 4 5 1015.9 - 0.0
24/01:00am 18.5 19.1 16.8 90 1.0 SSW 9 11 5 6 1016.1 - 0.0
24/12:30am 18.6 19.6 16.8 89 1.1 SSW 7 7 4 4 1016.6 - 0.0
24/12:00am 18.9 20.0 17.2 90 1.0 SSW 7 9 4 5 1017.0 1016.9 0.0
 
Date/Time
EST
Temp
°C
App
Temp
°C
Dew
Point
Rel
Hum
%
Delta-T
°C
Wind Press
QNH
hPa
Press
MSL
hPa
Rain
since 9 am
mm
Dir
 
Spd
km/h
Gust
km/h
Spd
kts
Gust
kts
23/11:30pm 18.4 19.3 16.7 90 1.0 SSW 7 9 4 5 1017.2 - 0.0
23/11:00pm 18.5 19.6 16.5 88 1.2 SSW 6 7 3 4 1017.2 - 0.0
23/10:30pm 19.1 20.1 16.9 87 1.3 SSW 7 9 4 5 1017.5 - 0.0
23/10:00pm 19.0 19.6 16.8 87 1.3 SSW 9 11 5 6 1017.6 - 0.0
23/09:30pm 19.1 19.7 16.9 87 1.3 S 9 11 5 6 1017.7 - 0.0
23/09:00pm 19.5 20.1 16.9 85 1.6 SSE 9 50 5 27 1017.7 1017.6 0.0
23/08:30pm 19.8 20.6 17.4 86 1.5 SSE 9 11 5 6 1017.7 - 0.0
23/08:00pm 20.5 21.9 17.9 85 1.6 ESE 7 9 4 5 1017.6 - 0.0
23/07:30pm 20.4 21.0 17.6 84 1.7 ESE 11 13 6 7 1017.3 - 0.0
23/07:00pm 20.4 22.4 17.0 81 2.1 ESE 2 7 1 4 1017.0 - 0.0
23/06:30pm 21.2 21.9 17.0 77 2.6 ESE 9 11 5 6 1016.5 - 0.0
23/06:00pm 22.0 22.3 16.9 73 3.1 ESE 11 13 6 7 1016.1 1016.0 0.0
23/05:30pm 23.4 23.8 17.2 68 3.8 E 11 15 6 8 1016.0 - 0.0
23/05:00pm 24.5 24.0 17.0 63 4.6 E 15 20 8 11 1015.7 - 0.0
23/04:30pm 25.4 25.2 16.8 59 5.3 ENE 13 17 7 9 1015.5 - 0.0
23/04:00pm 25.3 25.2 17.0 60 5.1 E 13 19 7 10 1015.3 - 0.0
23/03:30pm 25.3 25.4 17.5 62 4.9 E 13 17 7 9 1015.1 - 0.0
23/03:00pm 25.7 24.7 17.6 61 5.1 E 19 26 10 14 1015.1 1015.0 0.0
23/02:30pm 26.8 26.5 16.4 53 6.4 E 13 19 7 10 1015.4 - 0.0
23/02:00pm 26.8 27.1 17.0 55 6.1 E 11 19 6 10 1015.4 - 0.0
23/01:30pm 26.9 27.4 17.4 56 6.0 ENE 11 17 6 9 1015.7 - 0.0
23/01:00pm 26.7 27.4 18.0 59 5.5 E 11 17 6 9 1016.1 - 0.0
23/12:30pm 26.5 27.3 17.3 57 5.8 NNE 9 15 5 8 1016.6 - 0.0
23/12:00pm 25.9 26.0 17.5 59 5.3 E 13 20 7 11 1017.3 1017.2 0.0
23/11:30am 25.9 26.7 18.1 62 4.9 E 11 17 6 9 1017.6 - 0.0
23/11:00am 25.0 25.9 17.5 63 4.7 SSE 9 13 5 7 1018.1 - 0.0
23/10:30am 25.1 26.4 17.6 63 4.7 SSE 7 13 4 7 1018.4 - 0.0
23/10:00am 24.1 25.7 19.2 74 3.1 S 9 13 5 7 1018.7 - 0.0
23/09:30am 22.4 24.1 18.4 78 2.5 S 7 9 4 5 1018.6 - 0.0
23/09:00am 21.0 22.5 18.0 83 1.9 SSE 7 11 4 6 1018.7 1018.6 0.0
23/08:30am 19.8 20.6 17.4 86 1.5 S 9 11 5 6 1018.8 - 0.0
23/08:00am 19.1 19.7 16.7 86 1.4 S 9 11 5 6 1018.6 - 0.0
23/07:30am 18.4 19.2 16.4 88 1.2 S 7 9 4 5 1018.5 - 0.0
23/07:00am 17.9 18.5 15.9 88 1.2 S 7 11 4 6 1018.6 - 0.0
23/06:30am 17.8 17.6 15.8 88 1.2 S 11 13 6 7 1018.4 - 0.0
23/06:00am 18.0 18.5 15.6 86 1.4 WSW 7 11 4 6 1018.6 1018.5 0.0
23/05:30am 17.5 17.5 15.3 87 1.3 S 9 13 5 7 1018.3 - 0.0
23/05:00am 17.9 18.4 15.5 86 1.4 SW 7 9 4 5 1018.0 - 0.0
23/04:30am 18.3 19.0 15.7 85 1.5 SW 6 9 3 5 1017.9 - 0.0
23/04:00am 17.8 18.2 15.4 86 1.4 SW 7 9 4 5 1018.0 - 0.0
23/03:30am 17.9 18.2 15.0 83 1.7 SW 7 7 4 4 1017.6 - 0.0
23/03:00am 18.6 19.2 15.7 83 1.7 SSW 7 11 4 6 1017.9 1017.8 0.0
23/02:30am 17.9 18.3 15.3 85 1.5 SSW 7 11 4 6 1018.0 - 0.0
23/02:00am 18.8 19.6 15.9 83 1.7 SW 6 7 3 4 1018.1 - 0.0
23/01:30am 18.5 19.1 15.7 84 1.7 SW 7 11 4 6 1018.4 - 0.0
23/01:00am 18.6 19.5 16.0 85 1.5 SW 6 9 3 5 1018.5 - 0.0
23/12:30am 17.7 18.1 15.3 86 1.4 SW 7 9 4 5 1018.5 - 0.0
23/12:00am 18.2 18.9 16.2 88 1.2 SSW 7 11 4 6 1018.9 1018.8 0.0
 
Date/Time
EST
Temp
°C
App
Temp
°C
Dew
Point
Rel
Hum
%
Delta-T
°C
Wind Press
QNH
hPa
Press
MSL
hPa
Rain
since 9 am
mm
Dir
 
Spd
km/h
Gust
km/h
Spd
kts
Gust
kts
22/11:30pm 18.4 19.3 16.6 89 1.1 E 7 9 4 5 1018.9 - 0.0
22/11:00pm 18.6 21.0 16.9 90 1.0 CALM 0 0 0 0 1019.2 - 0.0
22/10:30pm 18.0 19.8 15.6 86 1.4 CALM 0 0 0 0 1019.3 - 0.0
22/10:00pm 17.9 19.6 15.2 84 1.6 CALM 0 0 0 0 1019.2 - 0.0
22/09:30pm 18.4 20.2 15.5 83 1.7 CALM 0 0 0 0 1019.5 - 0.0
22/09:00pm 18.5 20.3 15.6 83 1.7 CALM 0 0 0 0 1019.5 1019.4 0.0
22/08:30pm 18.8 20.5 15.3 80 2.1 CALM 0 0 0 0 1019.6 - 0.0
22/08:00pm 19.3 20.1 15.8 80 2.1 E 6 7 3 4 1019.6 - 0.0
22/07:30pm 19.5 19.9 14.7 74 2.8 E 6 7 3 4 1019.3 - 0.0
22/07:00pm 20.4 21.0 15.4 73 3.0 E 6 7 3 4 1019.1 - 0.0
22/06:30pm 21.0 21.1 15.5 71 3.3 E 9 11 5 6 1018.9 - 0.0
22/06:00pm 21.5 21.5 15.1 67 3.8 E 9 13 5 7 1018.6 1018.5 0.0
22/05:30pm 21.9 21.3 14.5 63 4.3 E 11 15 6 8 1018.4 - 0.0
22/05:00pm 23.2 22.2 14.5 58 5.1 E 13 20 7 11 1018.1 - 0.0
22/04:30pm 25.3 24.7 14.7 51 6.3 E 11 15 6 8 1017.9 - 0.0
22/04:00pm 26.0 24.5 14.1 47 7.1 E 15 20 8 11 1017.7 - 0.0
22/03:30pm 25.5 24.4 14.3 50 6.7 NE 13 19 7 10 1017.8 - 0.0
22/03:00pm 27.0 25.7 14.7 47 7.4 E 15 20 8 11 1017.8 1017.7 0.0
22/02:30pm 26.6 25.2 13.3 43 7.8 ESE 13 19 7 10 1017.9 - 0.0

Other Formats:

Comma delimited format used in spreadsheet applications
http://www.bom.gov.au/fwo/IDQ60801/IDQ60801.94567.axf

JavaScript Object Notation format (JSON) in row-major order
http://www.bom.gov.au/fwo/IDQ60801/IDQ60801.94567.json